createdAt,value
2019-03-22T00:01:24.041Z,22.60
2019-03-22T00:03:51.020Z,22.59
2019-03-22T00:06:17.929Z,22.60
2019-03-22T00:08:44.866Z,22.62
2019-03-22T00:11:11.776Z,22.59
2019-03-22T00:13:38.708Z,22.60
2019-03-22T00:16:05.708Z,22.57
2019-03-22T00:18:32.620Z,22.58
2019-03-22T00:20:59.531Z,22.57
2019-03-22T00:23:26.440Z,22.57
2019-03-22T00:25:53.356Z,22.56
2019-03-22T00:28:20.264Z,22.57
2019-03-22T00:30:47.173Z,22.55
2019-03-22T00:33:14.093Z,22.57
2019-03-22T00:35:40.996Z,22.55
2019-03-22T00:38:07.912Z,22.54
2019-03-22T00:40:34.820Z,22.56
2019-03-22T00:43:01.767Z,22.55
2019-03-22T00:45:28.679Z,22.54
2019-03-22T00:47:55.576Z,22.54
2019-03-22T00:50:22.492Z,22.54
2019-03-22T00:52:49.396Z,22.52
2019-03-22T00:55:16.317Z,22.54
2019-03-22T00:57:43.234Z,22.55
2019-03-22T01:00:10.214Z,22.51
2019-03-22T01:02:37.188Z,22.51
2019-03-22T01:05:04.101Z,22.50
2019-03-22T01:07:31.013Z,22.51
2019-03-22T01:09:57.921Z,22.51
2019-03-22T01:12:24.868Z,22.51
2019-03-22T01:14:51.780Z,22.50
2019-03-22T01:17:18.696Z,22.49
2019-03-22T01:19:45.658Z,22.48
2019-03-22T01:22:12.889Z,22.47
2019-03-22T01:24:39.802Z,22.48
2019-03-22T01:27:06.780Z,22.48
2019-03-22T01:29:33.712Z,22.47
2019-03-22T01:32:00.623Z,22.45
2019-03-22T01:34:27.557Z,22.45
2019-03-22T01:36:54.596Z,22.45
2019-03-22T01:39:21.575Z,22.45
2019-03-22T01:41:48.480Z,22.46
2019-03-22T01:44:15.392Z,22.45
2019-03-22T01:46:42.380Z,22.44
2019-03-22T01:49:09.316Z,22.43
2019-03-22T01:51:36.236Z,22.45
2019-03-22T01:54:03.148Z,22.42
2019-03-22T01:56:30.061Z,22.43
2019-03-22T01:58:56.972Z,22.43
2019-03-22T02:01:23.881Z,22.43
2019-03-22T02:03:50.789Z,22.43
2019-03-22T02:06:17.703Z,22.41
2019-03-22T02:08:44.616Z,22.42
2019-03-22T02:11:11.526Z,22.41
2019-03-22T02:13:38.443Z,22.40
2019-03-22T02:16:05.350Z,22.40
2019-03-22T02:18:32.285Z,22.40
2019-03-22T02:20:59.195Z,22.38
2019-03-22T02:23:26.100Z,22.39
2019-03-22T02:25:53.014Z,22.35
2019-03-22T02:28:19.921Z,22.39
2019-03-22T02:30:46.858Z,22.39
2019-03-22T02:33:13.772Z,22.37
2019-03-22T02:35:40.706Z,22.36
2019-03-22T02:38:07.617Z,22.38
2019-03-22T02:40:34.529Z,22.37
2019-03-22T02:43:01.442Z,22.35
2019-03-22T02:45:28.353Z,22.36
2019-03-22T02:47:55.289Z,22.36
2019-03-22T02:50:22.198Z,22.37
2019-03-22T02:52:49.107Z,22.35
2019-03-22T02:55:16.044Z,22.35
2019-03-22T02:57:42.966Z,22.36
2019-03-22T03:00:09.877Z,22.38
2019-03-22T03:02:36.790Z,22.33
2019-03-22T03:05:03.698Z,22.33
2019-03-22T03:07:30.600Z,22.34
2019-03-22T03:09:57.512Z,22.34
2019-03-22T03:12:24.420Z,22.32
2019-03-22T03:14:51.333Z,22.31
2019-03-22T03:17:18.250Z,22.32
2019-03-22T03:19:45.157Z,22.30
2019-03-22T03:22:12.110Z,22.31
2019-03-22T03:24:38.969Z,22.32
2019-03-22T03:27:05.878Z,22.31
2019-03-22T03:29:32.797Z,22.29
2019-03-22T03:31:59.817Z,22.28
2019-03-22T03:34:26.721Z,22.29
2019-03-22T03:36:53.620Z,22.29
2019-03-22T03:39:20.534Z,22.29
2019-03-22T03:41:47.449Z,22.30
2019-03-22T03:44:14.488Z,22.28
2019-03-22T03:46:41.373Z,22.26
2019-03-22T03:49:08.285Z,22.28
2019-03-22T03:51:35.198Z,22.28
2019-03-22T03:54:02.106Z,22.27
2019-03-22T03:56:29.045Z,22.26
2019-03-22T03:58:55.954Z,22.29
2019-03-22T04:01:22.945Z,22.28
2019-03-22T04:03:49.856Z,22.26
2019-03-22T04:06:16.775Z,22.26
2019-03-22T04:08:43.713Z,22.25
2019-03-22T04:11:10.628Z,22.26
2019-03-22T04:13:37.540Z,22.25
2019-03-22T04:16:04.454Z,22.25
2019-03-22T04:18:31.375Z,22.26
2019-03-22T04:20:58.293Z,22.26
2019-03-22T04:23:25.218Z,22.23
2019-03-22T04:25:52.111Z,22.23
2019-03-22T04:28:19.457Z,22.25
2019-03-22T04:30:46.411Z,22.24
2019-03-22T04:33:13.313Z,22.24
2019-03-22T04:35:40.250Z,22.25
2019-03-22T04:38:07.193Z,22.23
2019-03-22T04:40:34.091Z,22.21
2019-03-22T04:43:00.998Z,22.22
2019-03-22T04:45:27.918Z,22.23
2019-03-22T04:47:54.815Z,22.22
2019-03-22T04:50:21.753Z,22.21
2019-03-22T04:52:48.676Z,22.21
2019-03-22T04:55:15.600Z,22.21
2019-03-22T04:57:42.499Z,22.19
2019-03-22T05:00:09.510Z,22.22
2019-03-22T05:02:36.427Z,22.20
2019-03-22T05:05:03.353Z,22.20
2019-03-22T05:07:30.274Z,22.18
2019-03-22T05:09:57.197Z,22.20
2019-03-22T05:12:24.055Z,22.18
2019-03-22T05:14:50.977Z,22.19
2019-03-22T05:17:17.968Z,22.19
2019-03-22T05:19:44.896Z,22.17
2019-03-22T05:22:11.819Z,22.19
2019-03-22T05:24:38.789Z,22.18
2019-03-22T05:27:05.727Z,22.20
2019-03-22T05:29:32.646Z,22.19
2019-03-22T05:31:59.636Z,22.19
2019-03-22T05:34:26.535Z,22.17
2019-03-22T05:36:53.477Z,22.15
2019-03-22T05:39:20.369Z,22.17
2019-03-22T05:41:47.277Z,22.17
2019-03-22T05:44:14.203Z,22.16
2019-03-22T05:46:41.116Z,22.16
2019-03-22T05:49:08.020Z,22.14
2019-03-22T05:51:34.928Z,21.20
2019-03-22T05:54:01.868Z,22.15
2019-03-22T05:56:28.781Z,22.14
2019-03-22T05:58:55.680Z,22.15
2019-03-22T06:01:22.607Z,22.15
2019-03-22T06:03:49.521Z,22.14
2019-03-22T06:06:16.440Z,22.13
2019-03-22T06:08:43.363Z,22.13
2019-03-22T06:11:10.276Z,22.14
2019-03-22T06:13:37.185Z,22.14
2019-03-22T06:16:04.098Z,22.12
2019-03-22T06:18:31.001Z,22.14
2019-03-22T06:20:57.945Z,22.12
2019-03-22T06:23:24.847Z,22.13
2019-03-22T06:25:51.770Z,22.12
2019-03-22T06:28:18.677Z,22.12
2019-03-22T06:30:45.580Z,22.10
2019-03-22T06:33:12.502Z,22.10
2019-03-22T06:35:39.417Z,22.10
2019-03-22T06:38:06.318Z,22.08
2019-03-22T06:40:33.231Z,22.10
2019-03-22T06:43:00.153Z,22.09
2019-03-22T06:45:27.071Z,22.08
2019-03-22T06:47:53.994Z,22.07
2019-03-22T06:50:20.909Z,22.08
2019-03-22T06:52:47.811Z,22.08
2019-03-22T06:55:14.724Z,22.07
2019-03-22T06:57:41.660Z,22.06
2019-03-22T07:00:08.572Z,22.07
2019-03-22T07:02:35.484Z,22.07
2019-03-22T07:05:02.394Z,22.08
2019-03-22T07:07:29.321Z,22.07
2019-03-22T07:09:56.220Z,22.06
2019-03-22T07:12:23.149Z,22.06
2019-03-22T07:14:50.070Z,22.05
2019-03-22T07:17:16.980Z,22.04
2019-03-22T07:19:43.895Z,22.06
2019-03-22T07:22:10.801Z,22.05
2019-03-22T07:24:37.712Z,22.07
2019-03-22T07:27:04.624Z,22.05
2019-03-22T07:29:31.549Z,22.04
2019-03-22T07:31:58.485Z,22.04
2019-03-22T07:34:25.397Z,22.05
2019-03-22T07:36:52.301Z,22.03
2019-03-22T07:39:19.212Z,22.03
2019-03-22T07:41:46.148Z,22.02
2019-03-22T07:44:13.058Z,22.01
2019-03-22T07:46:39.970Z,22.02
2019-03-22T07:49:06.878Z,22.01
2019-03-22T07:51:33.784Z,22.02
2019-03-22T07:54:03.485Z,22.02
2019-03-22T07:56:29.273Z,22.03
2019-03-22T07:58:56.212Z,22.02
2019-03-22T08:01:23.120Z,22.00
2019-03-22T08:03:50.028Z,22.01
2019-03-22T08:06:16.945Z,22.02
2019-03-22T08:08:43.850Z,22.01
2019-03-22T08:11:10.760Z,21.99
2019-03-22T08:13:37.702Z,22.00
2019-03-22T08:16:04.605Z,22.01
2019-03-22T08:18:31.512Z,22.00
2019-03-22T08:20:58.450Z,21.99
2019-03-22T08:23:25.356Z,21.99
2019-03-22T08:25:52.276Z,21.98
2019-03-22T08:28:19.203Z,21.29
2019-03-22T08:30:46.113Z,21.97
2019-03-22T08:33:13.025Z,22.00
2019-03-22T08:35:39.957Z,21.99
2019-03-22T08:38:06.900Z,21.98
2019-03-22T08:40:33.782Z,21.97
2019-03-22T08:43:00.689Z,21.97
2019-03-22T08:45:27.642Z,21.96
2019-03-22T08:47:54.545Z,21.97
2019-03-22T08:50:21.515Z,21.96
2019-03-22T08:52:48.421Z,21.96
2019-03-22T08:55:15.426Z,21.96
2019-03-22T08:57:42.323Z,21.97
2019-03-22T09:00:09.246Z,21.96
2019-03-22T09:02:36.189Z,21.96
2019-03-22T09:05:03.073Z,21.95
2019-03-22T09:07:29.994Z,21.96
2019-03-22T09:09:56.921Z,21.96
2019-03-22T09:12:26.773Z,21.95
2019-03-22T09:14:52.458Z,21.94
2019-03-22T09:17:19.317Z,21.96
2019-03-22T09:19:46.241Z,21.94
2019-03-22T09:22:13.136Z,21.93
2019-03-22T09:24:40.035Z,21.93
2019-03-22T09:27:06.964Z,21.92
2019-03-22T09:29:33.952Z,21.94
2019-03-22T09:32:00.858Z,21.92
2019-03-22T09:34:33.549Z,21.93
2019-03-22T09:36:56.374Z,21.93
2019-03-22T09:39:23.253Z,21.91
2019-03-22T09:41:50.169Z,21.92
2019-03-22T09:44:17.081Z,21.91
2019-03-22T09:46:44.008Z,21.91
2019-03-22T09:49:10.956Z,21.91
2019-03-22T09:51:37.860Z,21.91
2019-03-22T09:54:04.839Z,21.92
2019-03-22T09:56:31.810Z,21.92
2019-03-22T09:58:58.707Z,21.91
2019-03-22T10:01:25.738Z,21.90
2019-03-22T10:03:52.669Z,21.90
2019-03-22T10:06:19.609Z,21.90
2019-03-22T10:08:46.486Z,21.90
2019-03-22T10:11:13.418Z,21.90
2019-03-22T10:13:40.361Z,21.89
2019-03-22T10:16:07.225Z,21.89
2019-03-22T10:18:36.730Z,21.88
2019-03-22T10:21:02.712Z,21.82
2019-03-22T10:23:29.755Z,21.88
2019-03-22T10:25:56.625Z,21.89
2019-03-22T10:28:23.544Z,21.87
2019-03-22T10:30:50.427Z,21.87
2019-03-22T10:33:22.633Z,21.87
2019-03-22T10:35:45.927Z,21.87
2019-03-22T10:38:16.441Z,21.87
2019-03-22T10:40:41.419Z,21.86
2019-03-22T10:43:08.317Z,21.87
2019-03-22T10:45:35.235Z,21.86
2019-03-22T10:48:02.180Z,21.86
2019-03-22T10:50:29.082Z,21.87
2019-03-22T10:52:56.066Z,21.86
2019-03-22T10:55:29.599Z,21.86
2019-03-22T10:57:51.566Z,21.86
2019-03-22T11:00:18.478Z,21.85
2019-03-22T11:02:45.385Z,21.85
2019-03-22T11:05:12.422Z,21.85
2019-03-22T11:07:39.323Z,21.85
2019-03-22T11:10:06.228Z,21.85
2019-03-22T11:12:33.146Z,21.85
2019-03-22T11:15:00.067Z,21.85
2019-03-22T11:17:26.963Z,21.85
2019-03-22T11:19:53.881Z,21.84
2019-03-22T11:22:20.831Z,21.85
2019-03-22T11:24:47.730Z,21.85
2019-03-22T11:27:14.650Z,21.86
2019-03-22T11:29:41.571Z,21.84
2019-03-22T11:32:12.605Z,21.85
2019-03-22T11:34:37.056Z,21.84
2019-03-22T11:37:03.977Z,21.84
2019-03-22T11:39:30.876Z,21.83
2019-03-22T11:41:57.799Z,21.84
2019-03-22T11:44:24.738Z,21.83
2019-03-22T11:46:51.635Z,21.83
2019-03-22T11:49:18.576Z,21.83
2019-03-22T11:51:45.586Z,21.82
2019-03-22T11:54:12.492Z,21.83
2019-03-22T11:56:39.419Z,21.83
2019-03-22T11:59:06.336Z,21.83
2019-03-22T12:01:33.232Z,21.83
2019-03-22T12:04:00.144Z,21.82
2019-03-22T12:06:27.395Z,21.82
2019-03-22T12:08:54.373Z,21.83
2019-03-22T12:11:21.299Z,21.82
2019-03-22T12:13:48.227Z,21.82
2019-03-22T12:16:15.145Z,21.82
2019-03-22T12:18:42.079Z,21.81
2019-03-22T12:21:09.025Z,21.82
2019-03-22T12:23:35.945Z,21.81
2019-03-22T12:26:02.845Z,21.81
2019-03-22T12:28:29.748Z,21.81
2019-03-22T12:30:56.669Z,21.82
2019-03-22T12:33:23.586Z,21.81
2019-03-22T12:35:50.496Z,21.80
2019-03-22T12:38:17.433Z,21.81
2019-03-22T12:40:44.332Z,21.80
2019-03-22T12:43:11.259Z,21.81
2019-03-22T12:45:38.180Z,21.79
2019-03-22T12:48:05.095Z,21.78
2019-03-22T12:50:31.995Z,21.79
2019-03-22T12:52:58.903Z,21.79
2019-03-22T12:55:25.849Z,21.79
2019-03-22T12:57:52.747Z,21.78
2019-03-22T13:00:19.666Z,21.79
2019-03-22T13:02:46.585Z,21.78
2019-03-22T13:05:13.491Z,21.78
2019-03-22T13:07:40.395Z,21.79
2019-03-22T13:10:07.314Z,21.79
2019-03-22T13:12:34.228Z,21.78
2019-03-22T13:15:01.127Z,21.78
2019-03-22T13:17:28.051Z,21.78
2019-03-22T13:19:55.047Z,21.77
2019-03-22T13:22:21.951Z,21.76
2019-03-22T13:24:48.870Z,21.76
2019-03-22T13:27:15.794Z,21.76
2019-03-22T13:29:42.688Z,21.76
2019-03-22T13:32:09.598Z,21.76
2019-03-22T13:34:36.513Z,21.75
2019-03-22T13:37:03.411Z,21.75
2019-03-22T13:39:30.326Z,21.75
2019-03-22T13:41:57.266Z,21.75
2019-03-22T13:44:24.167Z,21.75
2019-03-22T13:46:51.079Z,21.75
2019-03-22T13:49:17.994Z,21.76
2019-03-22T13:51:44.910Z,21.76
2019-03-22T13:54:11.811Z,21.76
2019-03-22T13:56:38.737Z,21.74
2019-03-22T13:59:05.657Z,21.74
2019-03-22T14:01:32.563Z,21.75
2019-03-22T14:03:59.490Z,21.75
2019-03-22T14:06:26.405Z,21.74
2019-03-22T14:08:53.312Z,21.74
2019-03-22T14:11:20.215Z,21.75
2019-03-22T14:13:47.128Z,21.75
2019-03-22T14:16:14.031Z,21.75
2019-03-22T14:18:40.940Z,21.74
2019-03-22T14:21:07.862Z,21.74
2019-03-22T14:23:34.773Z,21.74
2019-03-22T14:26:01.680Z,21.74
2019-03-22T14:28:28.588Z,21.73
2019-03-22T14:30:55.506Z,21.73
2019-03-22T14:33:22.424Z,21.73
2019-03-22T14:35:49.369Z,21.74
2019-03-22T14:38:16.272Z,21.73
2019-03-22T14:40:43.175Z,21.74
2019-03-22T14:43:10.102Z,21.73
2019-03-22T14:45:37.012Z,21.73
2019-03-22T14:48:03.942Z,21.73
2019-03-22T14:50:30.849Z,21.73
2019-03-22T14:52:57.761Z,21.72
2019-03-22T14:55:24.670Z,21.72
2019-03-22T14:57:52.420Z,21.72
2019-03-22T15:00:19.598Z,21.72
2019-03-22T15:02:46.514Z,21.72
2019-03-22T15:05:13.424Z,21.72
2019-03-22T15:07:40.361Z,21.72
2019-03-22T15:10:07.268Z,21.72
2019-03-22T15:12:34.179Z,21.72
2019-03-22T15:15:05.732Z,21.16
2019-03-22T15:17:43.475Z,21.72
2019-03-22T15:20:24.162Z,21.72
2019-03-22T15:23:09.000Z,21.72
2019-03-22T15:25:53.845Z,21.71
2019-03-22T15:28:34.635Z,21.71
2019-03-22T15:31:03.188Z,21.71
2019-03-22T15:33:34.507Z,21.70
2019-03-22T15:36:07.958Z,21.71
2019-03-22T15:38:37.210Z,21.70
2019-03-22T15:41:04.250Z,21.69
2019-03-22T15:43:31.160Z,21.70
2019-03-22T15:45:58.076Z,21.70
2019-03-22T15:48:24.980Z,21.70
2019-03-22T15:50:51.892Z,21.70
2019-03-22T15:53:18.833Z,21.70
2019-03-22T15:55:45.742Z,21.69
2019-03-22T15:58:12.649Z,20.96
2019-03-22T16:00:39.580Z,21.68
2019-03-22T16:03:06.518Z,21.69
2019-03-22T16:05:33.424Z,21.69
2019-03-22T16:08:00.333Z,20.93
2019-03-22T16:10:27.241Z,21.69
2019-03-22T16:12:54.152Z,21.68
2019-03-22T16:15:21.085Z,20.94
2019-03-22T16:17:48.000Z,21.69
2019-03-22T16:20:14.939Z,21.68
2019-03-22T16:22:41.845Z,21.69
2019-03-22T16:25:08.752Z,21.67
2019-03-22T16:27:35.669Z,21.68
2019-03-22T16:30:02.598Z,21.68
2019-03-22T16:32:29.528Z,21.68
2019-03-22T16:34:56.444Z,21.68
2019-03-22T16:37:23.356Z,21.68
2019-03-22T16:39:50.296Z,21.68
2019-03-22T16:42:17.204Z,21.67
2019-03-22T16:44:44.254Z,21.67
2019-03-22T16:47:11.160Z,21.67
2019-03-22T16:49:38.060Z,21.67
2019-03-22T16:52:05.031Z,21.66
2019-03-22T16:54:31.915Z,21.67
2019-03-22T16:56:58.860Z,21.66
2019-03-22T16:59:25.781Z,21.68
2019-03-22T17:01:52.702Z,21.67
2019-03-22T17:04:19.634Z,21.67
2019-03-22T17:06:46.541Z,21.67
2019-03-22T17:09:13.477Z,21.67
2019-03-22T17:11:40.385Z,21.66
2019-03-22T17:14:07.297Z,21.66
2019-03-22T17:16:34.209Z,21.66
2019-03-22T17:19:01.176Z,21.67
2019-03-22T17:21:28.113Z,21.66
2019-03-22T17:23:55.025Z,21.66
2019-03-22T17:26:21.949Z,21.66
2019-03-22T17:28:48.860Z,21.67
2019-03-22T17:31:15.801Z,21.65
2019-03-22T17:33:42.713Z,21.65
2019-03-22T17:36:09.658Z,21.64
2019-03-22T17:38:36.568Z,21.64
2019-03-22T17:41:03.472Z,21.65
2019-03-22T17:43:30.389Z,21.64
2019-03-22T17:45:57.310Z,21.64
2019-03-22T17:48:24.216Z,21.64
2019-03-22T17:50:51.129Z,21.64
2019-03-22T17:53:18.069Z,21.64
2019-03-22T17:55:44.980Z,21.64
2019-03-22T17:58:11.993Z,21.64
2019-03-22T18:00:38.974Z,21.63
2019-03-22T18:03:05.884Z,21.64
2019-03-22T18:05:32.816Z,21.64
2019-03-22T18:07:59.736Z,21.63
2019-03-22T18:10:26.640Z,21.64
2019-03-22T18:12:53.572Z,21.64
2019-03-22T18:15:20.558Z,21.64
2019-03-22T18:17:47.474Z,21.64
2019-03-22T18:20:14.432Z,21.63
2019-03-22T18:22:41.343Z,21.63
2019-03-22T18:25:08.249Z,21.62
2019-03-22T18:27:35.162Z,21.63
2019-03-22T18:30:02.098Z,21.62
2019-03-22T18:32:29.008Z,21.62
2019-03-22T18:34:55.917Z,21.61
2019-03-22T18:37:22.845Z,21.62
2019-03-22T18:39:49.756Z,21.62
2019-03-22T18:42:16.749Z,21.62
2019-03-22T18:44:43.652Z,21.63
2019-03-22T18:47:10.564Z,21.62
2019-03-22T18:49:37.476Z,21.62
2019-03-22T18:52:04.385Z,21.62
2019-03-22T18:54:31.297Z,21.62
2019-03-22T18:56:58.212Z,21.61
2019-03-22T18:59:25.124Z,21.61
2019-03-22T19:01:52.032Z,21.62
2019-03-22T19:04:18.948Z,21.61
2019-03-22T19:06:45.857Z,21.62
2019-03-22T19:09:12.772Z,21.61
2019-03-22T19:11:39.684Z,21.61
2019-03-22T19:14:06.589Z,21.60
2019-03-22T19:16:33.529Z,21.61
2019-03-22T19:19:00.445Z,21.60
2019-03-22T19:21:27.353Z,21.61
2019-03-22T19:23:54.264Z,21.61
2019-03-22T19:26:21.173Z,21.61
2019-03-22T19:28:48.084Z,21.61
2019-03-22T19:31:14.997Z,21.61
2019-03-22T19:33:41.908Z,21.60
2019-03-22T19:36:08.822Z,21.60
2019-03-22T19:38:35.758Z,21.60
2019-03-22T19:41:02.669Z,21.60
2019-03-22T19:43:29.585Z,21.60
2019-03-22T19:45:56.492Z,21.59
2019-03-22T19:48:23.400Z,21.59
2019-03-22T19:50:50.313Z,21.59
2019-03-22T19:53:17.220Z,21.60
2019-03-22T19:55:44.161Z,21.59
2019-03-22T19:58:11.073Z,21.59
2019-03-22T20:00:38.001Z,21.60
2019-03-22T20:03:04.992Z,21.58
2019-03-22T20:05:31.913Z,21.58
2019-03-22T20:07:58.829Z,21.59
2019-03-22T20:10:25.737Z,21.59
2019-03-22T20:12:52.658Z,21.59
2019-03-22T20:15:19.592Z,21.59
2019-03-22T20:17:46.496Z,21.58
2019-03-22T20:20:13.433Z,21.58
2019-03-22T20:22:40.345Z,21.58
2019-03-22T20:25:07.288Z,21.59
2019-03-22T20:27:34.189Z,21.59
2019-03-22T20:30:01.134Z,21.58
2019-03-22T20:32:29.088Z,21.57
2019-03-22T20:34:56.000Z,21.57
2019-03-22T20:37:22.913Z,21.57
2019-03-22T20:39:49.884Z,21.57
2019-03-22T20:42:16.824Z,21.58
2019-03-22T20:44:43.777Z,21.57
2019-03-22T20:47:10.684Z,21.57
2019-03-22T20:49:37.600Z,21.56
2019-03-22T20:52:04.532Z,21.56
2019-03-22T20:54:31.469Z,21.57
2019-03-22T20:56:58.378Z,21.55
2019-03-22T20:59:25.288Z,21.57
2019-03-22T21:01:52.221Z,21.56
2019-03-22T21:04:19.128Z,21.56
2019-03-22T21:06:46.064Z,21.56
2019-03-22T21:09:12.981Z,21.56
2019-03-22T21:11:39.916Z,21.56
2019-03-22T21:14:06.830Z,21.54
2019-03-22T21:16:33.749Z,21.56
2019-03-22T21:19:00.732Z,21.55
2019-03-22T21:21:35.959Z,21.55
2019-03-22T21:23:56.203Z,21.55
2019-03-22T21:26:23.099Z,21.54
2019-03-22T21:28:50.013Z,21.54
2019-03-22T21:31:17.006Z,21.53
2019-03-22T21:33:43.913Z,21.54
2019-03-22T21:36:10.815Z,21.54
2019-03-22T21:38:37.733Z,21.54
2019-03-22T21:41:04.644Z,21.53
2019-03-22T21:43:31.560Z,21.54
2019-03-22T21:45:58.502Z,21.54
2019-03-22T21:48:25.409Z,21.54
2019-03-22T21:50:52.316Z,21.54
2019-03-22T21:53:19.235Z,21.52
2019-03-22T21:55:46.141Z,21.52
2019-03-22T21:58:13.060Z,21.52
2019-03-22T22:00:39.969Z,21.53
2019-03-22T22:03:06.906Z,21.53
2019-03-22T22:05:33.817Z,21.52
2019-03-22T22:08:00.728Z,21.52
2019-03-22T22:10:27.642Z,21.52
2019-03-22T22:12:54.552Z,21.52
2019-03-22T22:15:21.456Z,21.52
2019-03-22T22:17:48.369Z,21.52
2019-03-22T22:20:15.285Z,21.52
2019-03-22T22:22:42.200Z,21.51
2019-03-22T22:25:09.145Z,21.52
2019-03-22T22:27:36.044Z,21.52
2019-03-22T22:30:02.953Z,21.52
2019-03-22T22:32:29.865Z,21.50
2019-03-22T22:34:56.776Z,21.51
2019-03-22T22:37:23.688Z,21.51
2019-03-22T22:39:50.597Z,21.51
2019-03-22T22:42:17.509Z,21.51
2019-03-22T22:44:44.441Z,21.50
2019-03-22T22:47:11.353Z,21.51
2019-03-22T22:49:38.330Z,21.51
2019-03-22T22:52:05.236Z,21.51
2019-03-22T22:54:32.177Z,21.49
2019-03-22T22:56:59.089Z,21.48
2019-03-22T22:59:25.996Z,21.49
2019-03-22T23:01:52.910Z,21.49
2019-03-22T23:04:19.817Z,21.49
2019-03-22T23:06:46.744Z,21.49
2019-03-22T23:09:13.654Z,21.49
2019-03-22T23:11:40.589Z,21.48
2019-03-22T23:14:07.497Z,21.50
2019-03-22T23:16:34.407Z,21.48
2019-03-22T23:19:01.365Z,21.48
2019-03-22T23:21:28.276Z,21.48
2019-03-22T23:23:55.209Z,21.48
2019-03-22T23:26:22.120Z,21.48
2019-03-22T23:28:49.057Z,21.47
2019-03-22T23:31:15.964Z,21.48
2019-03-22T23:33:42.893Z,21.48
2019-03-22T23:36:19.557Z,21.47
2019-03-22T23:38:38.444Z,21.48
2019-03-22T23:41:05.384Z,21.47
2019-03-22T23:43:32.293Z,21.47
2019-03-22T23:45:59.200Z,21.47
2019-03-22T23:48:26.140Z,21.47
2019-03-22T23:50:53.050Z,21.48
2019-03-22T23:53:19.956Z,21.48
2019-03-22T23:55:46.869Z,21.46
2019-03-22T23:58:13.776Z,21.48
